Foxborough, Massachusetts
Current Conditions -  °F | °C
As of 9:53 AM on Friday 31 Oct 2014 (Local Time) from KOWD Reporting Station
Overcast Overcast  
Wind Chill: 52°   Ceiling: 5500
Heat Index: 52°   Visibility: 10mi
Dew Point: 39°   Wind: 7mph
Humidity: 61%   Direction: 50°NE
Pressure: 30.02"   Gusts: NA
Location:  42.0631°N, 71.2456°W
Report Text: KOWD 311353Z 05006KT 10SM OVC055 11/04 A3002 RMK AO2 SLP166 T01110039
Loading
Personal Weather Stations






























Interactive Weather Map
Tropical Storm Tracking
New forecast layout! Learn more

10-Day Weather Forecast

Advertisements
Track Severe Weather on mobile